createdAt,value
2018-10-17T00:00:55.942Z,15.30
2018-10-17T00:01:55.813Z,14.90
2018-10-17T00:02:55.734Z,15.50
2018-10-17T00:03:55.644Z,15.30
2018-10-17T00:04:55.577Z,15.20
2018-10-17T00:05:55.476Z,16.00
2018-10-17T00:06:55.462Z,14.70
2018-10-17T00:07:55.309Z,15.00
2018-10-17T00:08:55.232Z,14.80
2018-10-17T00:09:55.146Z,14.60
2018-10-17T00:10:55.064Z,15.10
2018-10-17T00:11:54.987Z,14.80
2018-10-17T00:12:54.942Z,15.10
2018-10-17T00:13:54.820Z,15.10
2018-10-17T00:14:54.738Z,15.60
2018-10-17T00:15:54.664Z,16.70
2018-10-17T00:16:54.605Z,16.10
2018-10-17T00:17:54.490Z,16.30
2018-10-17T00:18:54.444Z,16.10
2018-10-17T00:19:54.323Z,17.40
2018-10-17T00:20:54.262Z,16.00
2018-10-17T00:21:54.163Z,16.50
2018-10-17T00:22:54.088Z,16.40
2018-10-17T00:23:53.996Z,15.90
2018-10-17T00:24:53.932Z,15.70
2018-10-17T00:25:53.835Z,16.60
2018-10-17T00:26:53.751Z,15.60
2018-10-17T00:27:53.665Z,16.10
2018-10-17T00:28:53.646Z,15.80
2018-10-17T00:29:53.502Z,15.40
2018-10-17T00:30:53.461Z,15.70
2018-10-17T00:31:53.347Z,15.60
2018-10-17T00:32:53.253Z,15.20
2018-10-17T00:33:53.177Z,16.60
2018-10-17T00:34:53.099Z,15.80
2018-10-17T00:35:53.000Z,16.20
2018-10-17T00:36:52.968Z,15.30
2018-10-17T00:37:52.841Z,15.50
2018-10-17T00:38:52.767Z,15.00
2018-10-17T00:39:52.674Z,15.60
2018-10-17T00:40:52.626Z,15.20
2018-10-17T00:41:52.517Z,15.20
2018-10-17T00:42:52.475Z,15.50
2018-10-17T00:43:52.357Z,14.80
2018-10-17T00:44:52.263Z,15.80
2018-10-17T00:45:52.192Z,15.40
2018-10-17T00:46:52.108Z,16.30
2018-10-17T00:47:52.017Z,16.50
2018-10-17T00:48:51.951Z,15.70
2018-10-17T00:49:51.854Z,16.40
2018-10-17T00:50:51.786Z,16.50
2018-10-17T00:51:51.708Z,16.20
2018-10-17T00:52:51.621Z,15.90
2018-10-17T00:53:51.530Z,16.20
2018-10-17T00:54:51.457Z,15.80
2018-10-17T00:55:51.359Z,15.50
2018-10-17T00:56:51.274Z,15.70
2018-10-17T00:57:51.204Z,15.70
2018-10-17T00:58:51.157Z,16.00
2018-10-17T00:59:51.031Z,15.60
2018-10-17T01:00:50.963Z,15.80
2018-10-17T01:01:50.869Z,15.90
2018-10-17T01:02:50.782Z,15.80
2018-10-17T01:03:50.706Z,16.20
2018-10-17T01:04:50.623Z,16.00
2018-10-17T01:05:50.535Z,16.20
2018-10-17T01:06:50.453Z,16.20
2018-10-17T01:07:50.370Z,16.50
2018-10-17T01:08:50.294Z,16.50
2018-10-17T01:09:50.206Z,16.70
2018-10-17T01:10:50.122Z,16.30
2018-10-17T01:11:50.046Z,16.90
2018-10-17T01:12:49.957Z,17.30
2018-10-17T01:13:49.896Z,16.60
2018-10-17T01:14:49.796Z,17.50
2018-10-17T01:15:49.708Z,16.50
2018-10-17T01:16:49.632Z,17.00
2018-10-17T01:17:49.547Z,16.40
2018-10-17T01:18:49.471Z,16.70
2018-10-17T01:19:49.634Z,16.90
2018-10-17T01:20:49.296Z,16.40
2018-10-17T01:21:49.221Z,16.60
2018-10-17T01:22:49.134Z,18.10
2018-10-17T01:23:49.059Z,19.40
2018-10-17T01:24:48.972Z,17.90
2018-10-17T01:25:48.883Z,17.80
2018-10-17T01:26:48.809Z,18.70
2018-10-17T01:27:48.722Z,18.00
2018-10-17T01:28:48.647Z,18.10
2018-10-17T01:29:48.560Z,18.40
2018-10-17T01:30:48.486Z,18.10
2018-10-17T01:31:48.398Z,18.00
2018-10-17T01:32:48.310Z,17.00
2018-10-17T01:33:48.234Z,17.80
2018-10-17T01:34:48.148Z,18.20
2018-10-17T01:35:48.060Z,18.20
2018-10-17T01:36:47.985Z,17.60
2018-10-17T01:37:47.898Z,17.70
2018-10-17T01:38:47.811Z,18.20
2018-10-17T01:39:47.735Z,18.20
2018-10-17T01:40:47.653Z,18.50
2018-10-17T01:41:47.574Z,18.30
2018-10-17T01:42:47.486Z,18.60
2018-10-17T01:43:47.399Z,18.00
2018-10-17T01:44:47.324Z,18.30
2018-10-17T01:45:47.236Z,18.40
2018-10-17T01:46:47.161Z,18.50
2018-10-17T01:47:47.074Z,17.40
2018-10-17T01:48:46.985Z,17.50
2018-10-17T01:49:46.912Z,17.10
2018-10-17T01:50:46.825Z,17.40
2018-10-17T01:51:46.750Z,18.00
2018-10-17T01:52:46.674Z,17.40
2018-10-17T01:53:46.579Z,16.90
2018-10-17T01:54:46.504Z,16.60
2018-10-17T01:55:46.412Z,17.20
2018-10-17T01:56:46.324Z,16.40
2018-10-17T01:57:46.251Z,16.80
2018-10-17T01:58:46.165Z,16.50
2018-10-17T01:59:46.086Z,16.10
2018-10-17T02:00:46.002Z,16.70
2018-10-17T02:01:45.914Z,16.70
2018-10-17T02:02:45.837Z,17.10
2018-10-17T02:03:45.751Z,17.10
2018-10-17T02:04:45.914Z,17.10
2018-10-17T02:05:45.601Z,17.00
2018-10-17T02:06:45.508Z,17.50
2018-10-17T02:07:45.425Z,17.70
2018-10-17T02:08:45.337Z,17.90
2018-10-17T02:09:45.252Z,18.70
2018-10-17T02:10:45.237Z,19.60
2018-10-17T02:11:45.089Z,19.90
2018-10-17T02:12:45.014Z,20.20
2018-10-17T02:13:44.927Z,19.60
2018-10-17T02:14:44.838Z,19.50
2018-10-17T02:15:44.764Z,19.30
2018-10-17T02:16:44.677Z,19.40
2018-10-17T02:17:44.603Z,18.80
2018-10-17T02:18:44.514Z,18.80
2018-10-17T02:19:44.427Z,19.40
2018-10-17T02:20:44.352Z,19.30
2018-10-17T02:21:44.267Z,18.90
2018-10-17T02:22:44.177Z,19.10
2018-10-17T02:23:44.103Z,19.70
2018-10-17T02:24:44.264Z,19.40
2018-10-17T02:25:43.939Z,19.50
2018-10-17T02:26:43.855Z,19.70
2018-10-17T02:27:43.768Z,21.50
2018-10-17T02:28:43.704Z,20.10
2018-10-17T02:29:43.656Z,20.50
2018-10-17T02:30:43.517Z,19.60
2018-10-17T02:31:43.455Z,20.40
2018-10-17T02:32:43.357Z,20.00
2018-10-17T02:33:43.283Z,19.70
2018-10-17T02:34:43.191Z,19.70
2018-10-17T02:35:43.103Z,20.10
2018-10-17T02:36:43.029Z,19.90
2018-10-17T02:37:42.941Z,19.10
2018-10-17T02:38:42.867Z,19.20
2018-10-17T02:39:42.835Z,19.30
2018-10-17T02:40:42.692Z,19.40
2018-10-17T02:41:42.616Z,19.90
2018-10-17T02:42:42.530Z,21.40
2018-10-17T02:43:42.443Z,21.00
2018-10-17T02:44:42.367Z,21.20
2018-10-17T02:45:42.281Z,21.50
2018-10-17T02:46:42.205Z,22.10
2018-10-17T02:47:42.117Z,22.20
2018-10-17T02:48:42.031Z,21.80
2018-10-17T02:49:41.956Z,22.50
2018-10-17T02:50:41.868Z,21.20
2018-10-17T02:51:41.793Z,21.60
2018-10-17T02:52:41.706Z,22.60
2018-10-17T02:53:41.619Z,22.00
2018-10-17T02:54:41.543Z,21.90
2018-10-17T02:55:41.465Z,22.10
2018-10-17T02:56:41.368Z,23.00
2018-10-17T02:57:41.296Z,22.70
2018-10-17T02:58:41.210Z,23.10
2018-10-17T02:59:41.132Z,22.90
2018-10-17T03:00:41.044Z,22.40
2018-10-17T03:01:40.957Z,22.20
2018-10-17T03:02:40.882Z,22.60
2018-10-17T03:03:40.794Z,22.30
2018-10-17T03:04:40.707Z,22.30
2018-10-17T03:05:40.633Z,23.60
2018-10-17T03:06:40.545Z,22.90
2018-10-17T03:07:40.483Z,21.60
2018-10-17T03:08:40.382Z,22.70
2018-10-17T03:09:40.295Z,21.50
2018-10-17T03:10:40.220Z,22.60
2018-10-17T03:11:40.133Z,23.20
2018-10-17T03:12:40.050Z,23.20
2018-10-17T03:13:39.982Z,21.50
2018-10-17T03:14:39.883Z,21.40
2018-10-17T03:15:39.810Z,21.90
2018-10-17T03:16:39.720Z,20.70
2018-10-17T03:17:39.650Z,21.70
2018-10-17T03:18:39.559Z,21.60
2018-10-17T03:19:39.721Z,21.50
2018-10-17T03:20:39.395Z,21.30
2018-10-17T03:21:39.309Z,20.60
2018-10-17T03:22:39.221Z,21.20
2018-10-17T03:23:39.152Z,20.60
2018-10-17T03:24:39.061Z,22.10
2018-10-17T03:25:38.972Z,21.50
2018-10-17T03:26:38.897Z,22.30
2018-10-17T03:27:38.856Z,21.80
2018-10-17T03:28:38.728Z,21.80
2018-10-17T03:29:38.656Z,21.30
2018-10-17T03:30:38.564Z,21.50
2018-10-17T03:31:38.486Z,20.80
2018-10-17T03:32:38.397Z,21.40
2018-10-17T03:33:38.311Z,21.70
2018-10-17T03:34:38.235Z,20.80
2018-10-17T03:35:38.192Z,21.10
2018-10-17T03:36:38.074Z,20.10
2018-10-17T03:37:37.987Z,20.20
2018-10-17T03:38:37.903Z,20.90
2018-10-17T03:39:37.836Z,21.30
2018-10-17T03:40:37.736Z,21.10
2018-10-17T03:41:37.647Z,21.20
2018-10-17T03:42:37.569Z,22.70
2018-10-17T03:43:37.482Z,21.60
2018-10-17T03:44:37.412Z,22.00
2018-10-17T03:45:37.325Z,21.70
2018-10-17T03:46:37.237Z,22.80
2018-10-17T03:47:37.168Z,21.80
2018-10-17T03:48:37.071Z,22.50
2018-10-17T03:49:36.989Z,22.30
2018-10-17T03:50:36.914Z,22.00
2018-10-17T03:51:36.837Z,22.30
2018-10-17T03:52:36.747Z,21.50
2018-10-17T03:53:36.666Z,21.30
2018-10-17T03:54:36.569Z,22.10
2018-10-17T03:55:36.493Z,21.30
2018-10-17T03:56:36.417Z,21.40
2018-10-17T03:57:36.338Z,20.80
2018-10-17T03:58:36.249Z,21.20
2018-10-17T03:59:36.305Z,22.30
2018-10-17T04:00:36.076Z,21.90
2018-10-17T04:01:35.995Z,21.70
2018-10-17T04:02:35.913Z,22.20
2018-10-17T04:03:35.837Z,22.40
2018-10-17T04:04:35.998Z,22.50
2018-10-17T04:05:35.662Z,20.70
2018-10-17T04:06:35.583Z,22.30
2018-10-17T04:07:35.495Z,21.10
2018-10-17T04:08:35.422Z,22.00
2018-10-17T04:09:35.336Z,22.30
2018-10-17T04:10:35.264Z,21.80
2018-10-17T04:11:35.178Z,22.00
2018-10-17T04:12:35.085Z,21.70
2018-10-17T04:13:34.997Z,22.60
2018-10-17T04:14:34.927Z,22.60
2018-10-17T04:15:34.837Z,22.10
2018-10-17T04:16:34.753Z,23.50
2018-10-17T04:17:34.677Z,22.30
2018-10-17T04:18:34.588Z,22.90
2018-10-17T04:19:34.512Z,22.90
2018-10-17T04:20:34.428Z,23.30
2018-10-17T04:21:34.341Z,23.00
2018-10-17T04:22:34.286Z,23.80
2018-10-17T04:23:34.175Z,23.30
2018-10-17T04:24:34.089Z,22.70
2018-10-17T04:25:34.010Z,22.90
2018-10-17T04:26:33.926Z,23.10
2018-10-17T04:27:33.854Z,22.30
2018-10-17T04:28:33.763Z,22.40
2018-10-17T04:29:33.673Z,22.90
2018-10-17T04:30:33.608Z,21.90
2018-10-17T04:31:33.519Z,21.30
2018-10-17T04:32:33.426Z,22.40
2018-10-17T04:33:33.351Z,22.50
2018-10-17T04:34:33.261Z,21.70
2018-10-17T04:35:33.175Z,21.50
2018-10-17T04:36:33.102Z,22.80
2018-10-17T04:37:33.016Z,21.70
2018-10-17T04:38:32.936Z,22.00
2018-10-17T04:39:32.852Z,22.60
2018-10-17T04:40:32.764Z,22.60
2018-10-17T04:41:32.689Z,22.30
2018-10-17T04:42:32.605Z,22.60
2018-10-17T04:43:32.518Z,22.00
2018-10-17T04:44:32.436Z,22.60
2018-10-17T04:45:32.348Z,21.70
2018-10-17T04:46:32.269Z,23.50
2018-10-17T04:47:32.217Z,23.70
2018-10-17T04:48:32.105Z,23.80
2018-10-17T04:49:32.032Z,24.50
2018-10-17T04:50:31.939Z,23.80
2018-10-17T04:51:31.851Z,24.40
2018-10-17T04:52:31.794Z,23.30
2018-10-17T04:53:31.693Z,24.90
2018-10-17T04:54:31.601Z,23.90
2018-10-17T04:55:31.528Z,24.00
2018-10-17T04:56:31.438Z,24.40
2018-10-17T04:57:31.351Z,24.10
2018-10-17T04:58:31.281Z,24.90
2018-10-17T04:59:31.193Z,24.30
2018-10-17T05:00:31.122Z,24.20
2018-10-17T05:01:31.028Z,23.50
2018-10-17T05:02:30.944Z,24.60
2018-10-17T05:03:30.873Z,23.20
2018-10-17T05:04:31.036Z,23.60
2018-10-17T05:05:30.693Z,24.80
2018-10-17T05:06:30.614Z,26.40
2018-10-17T05:07:30.527Z,26.70
2018-10-17T05:08:30.446Z,24.90
2018-10-17T05:09:30.373Z,25.80
2018-10-17T05:10:30.283Z,23.60
2018-10-17T05:11:30.209Z,25.20
2018-10-17T05:12:30.120Z,24.50
2018-10-17T05:13:30.029Z,25.50
2018-10-17T05:14:29.956Z,25.30
2018-10-17T05:15:29.870Z,25.30
2018-10-17T05:16:29.780Z,26.90
2018-10-17T05:17:29.704Z,26.40
2018-10-17T05:18:29.622Z,27.40
2018-10-17T05:19:29.784Z,26.80
2018-10-17T05:20:29.457Z,28.60
2018-10-17T05:21:29.371Z,27.00
2018-10-17T05:22:29.291Z,26.00
2018-10-17T05:23:29.202Z,27.10
2018-10-17T05:24:29.120Z,26.60
2018-10-17T05:25:29.095Z,26.20
2018-10-17T05:26:28.959Z,26.90
2018-10-17T05:27:28.878Z,26.90
2018-10-17T05:28:28.795Z,26.40
2018-10-17T05:29:28.706Z,26.90
2018-10-17T05:30:28.623Z,25.80
2018-10-17T05:31:28.548Z,26.10
2018-10-17T05:32:28.454Z,25.20
2018-10-17T05:33:28.379Z,25.90
2018-10-17T05:34:28.296Z,26.30
2018-10-17T05:35:28.208Z,25.90
2018-10-17T05:36:28.138Z,26.50
2018-10-17T05:37:28.122Z,27.20
2018-10-17T05:38:27.971Z,27.30
2018-10-17T05:39:28.131Z,27.90
2018-10-17T05:40:27.804Z,27.00
2018-10-17T05:41:27.712Z,26.50
2018-10-17T05:42:27.632Z,27.20
2018-10-17T05:43:27.546Z,25.90
2018-10-17T05:44:27.517Z,27.50
2018-10-17T05:45:27.396Z,26.00
2018-10-17T05:46:27.300Z,27.20
2018-10-17T05:47:27.223Z,26.60
2018-10-17T05:48:27.133Z,26.90
2018-10-17T05:49:27.046Z,26.20
2018-10-17T05:50:26.975Z,25.60
2018-10-17T05:51:26.888Z,27.20
2018-10-17T05:52:26.801Z,26.20
2018-10-17T05:53:26.727Z,27.00
2018-10-17T05:54:26.632Z,26.80
2018-10-17T05:55:26.600Z,26.40
2018-10-17T05:56:26.476Z,26.10
2018-10-17T05:57:26.386Z,26.70
2018-10-17T05:58:26.306Z,27.40
2018-10-17T05:59:26.220Z,27.20
2018-10-17T06:00:26.137Z,25.80
2018-10-17T06:01:26.125Z,26.30
2018-10-17T06:02:26.007Z,27.50
2018-10-17T06:03:25.889Z,27.20
2018-10-17T06:04:25.808Z,29.70
2018-10-17T06:05:25.721Z,30.80
2018-10-17T06:06:25.640Z,29.20
2018-10-17T06:07:25.577Z,31.10
2018-10-17T06:08:25.478Z,30.30
2018-10-17T06:09:25.410Z,30.00
2018-10-17T06:10:25.386Z,30.00
2018-10-17T06:11:25.225Z,29.50
2018-10-17T06:12:25.151Z,28.60
2018-10-17T06:13:25.063Z,29.60
2018-10-17T06:14:24.972Z,30.10
2018-10-17T06:15:24.897Z,30.20
2018-10-17T06:16:24.811Z,30.30
2018-10-17T06:17:24.784Z,28.40
2018-10-17T06:18:24.654Z,28.50
2018-10-17T06:19:24.816Z,29.70
2018-10-17T06:20:24.503Z,31.20
2018-10-17T06:21:24.405Z,29.30
2018-10-17T06:22:24.315Z,31.40
2018-10-17T06:23:24.243Z,30.70
2018-10-17T06:24:24.158Z,29.30
2018-10-17T06:25:24.067Z,31.10
2018-10-17T06:26:23.988Z,28.20
2018-10-17T06:27:23.904Z,29.60
2018-10-17T06:28:23.892Z,29.60
2018-10-17T06:29:23.742Z,27.60
2018-10-17T06:30:23.650Z,30.10
2018-10-17T06:31:23.576Z,27.30
2018-10-17T06:32:23.489Z,28.80
2018-10-17T06:33:23.400Z,27.80
2018-10-17T06:34:23.402Z,27.40
2018-10-17T06:35:23.254Z,27.10
2018-10-17T06:36:23.151Z,29.00
2018-10-17T06:37:23.080Z,28.20
2018-10-17T06:38:22.997Z,26.80
2018-10-17T06:39:23.167Z,30.20
2018-10-17T06:40:22.834Z,29.50
2018-10-17T06:41:22.742Z,29.50
2018-10-17T06:42:22.661Z,27.70
2018-10-17T06:43:22.581Z,28.40
2018-10-17T06:44:22.492Z,31.10
2018-10-17T06:45:22.416Z,29.70
2018-10-17T06:46:22.330Z,26.50
2018-10-17T06:47:22.318Z,29.10
2018-10-17T06:48:22.177Z,29.40
2018-10-17T06:49:22.078Z,28.00
2018-10-17T06:50:22.011Z,29.20
2018-10-17T06:51:21.940Z,27.80
2018-10-17T06:52:21.838Z,28.90
2018-10-17T06:53:21.751Z,30.00
2018-10-17T06:54:21.744Z,29.40
2018-10-17T06:55:21.593Z,29.20
2018-10-17T06:56:21.511Z,30.50
2018-10-17T06:57:21.423Z,29.70
2018-10-17T06:58:21.345Z,29.10
2018-10-17T06:59:21.259Z,27.50
2018-10-17T07:00:21.193Z,28.60
2018-10-17T07:01:21.095Z,26.90
2018-10-17T07:02:21.136Z,26.80
2018-10-17T07:03:20.929Z,28.70
2018-10-17T07:04:20.839Z,29.90
2018-10-17T07:05:20.759Z,29.50
2018-10-17T07:06:20.684Z,28.60
2018-10-17T07:07:20.676Z,27.60
2018-10-17T07:08:20.591Z,28.80
2018-10-17T07:09:20.465Z,29.20
2018-10-17T07:10:20.347Z,29.10
2018-10-17T07:11:20.302Z,29.20
2018-10-17T07:12:20.185Z,30.10
2018-10-17T07:13:20.161Z,29.80
2018-10-17T07:14:20.022Z,28.50
2018-10-17T07:15:20.056Z,29.20
2018-10-17T07:16:19.861Z,28.90
2018-10-17T07:17:19.785Z,29.30
2018-10-17T07:18:19.693Z,29.70
2018-10-17T07:19:19.856Z,30.60
2018-10-17T07:20:19.516Z,29.90
2018-10-17T07:21:19.441Z,29.00
2018-10-17T07:22:19.358Z,29.90
2018-10-17T07:23:19.287Z,29.90
2018-10-17T07:24:19.193Z,29.70
2018-10-17T07:25:19.107Z,29.20
2018-10-17T07:26:19.042Z,30.10
2018-10-17T07:27:18.948Z,30.00
2018-10-17T07:28:18.898Z,28.90
2018-10-17T07:29:18.853Z,29.40
2018-10-17T07:30:18.692Z,30.90
2018-10-17T07:31:18.624Z,29.90
2018-10-17T07:32:18.535Z,30.20
2018-10-17T07:33:18.460Z,29.80
2018-10-17T07:34:18.371Z,31.10
2018-10-17T07:35:18.295Z,30.60
2018-10-17T07:36:18.273Z,29.80
2018-10-17T07:37:18.122Z,31.40
2018-10-17T07:38:18.049Z,30.70
2018-10-17T07:39:18.215Z,31.90
2018-10-17T07:40:17.882Z,32.60
2018-10-17T07:41:17.794Z,31.10
2018-10-17T07:42:17.829Z,30.00
2018-10-17T07:43:17.637Z,31.20
2018-10-17T07:44:17.551Z,32.40
2018-10-17T07:45:17.490Z,32.00
2018-10-17T07:46:17.385Z,31.30
2018-10-17T07:47:17.309Z,29.60
2018-10-17T07:48:17.309Z,30.80
2018-10-17T07:49:17.152Z,30.50
2018-10-17T07:50:17.060Z,31.00
2018-10-17T07:51:16.974Z,31.00
2018-10-17T07:52:16.895Z,31.90
2018-10-17T07:53:16.866Z,33.00
2018-10-17T07:54:16.798Z,32.50
2018-10-17T07:55:16.656Z,31.30
2018-10-17T07:56:16.573Z,31.00
2018-10-17T07:57:16.485Z,31.80
2018-10-17T07:58:16.402Z,32.10
2018-10-17T07:59:16.328Z,31.90
2018-10-17T08:00:16.304Z,32.80
2018-10-17T08:01:16.164Z,32.20
2018-10-17T08:02:16.071Z,33.10
2018-10-17T08:03:15.997Z,32.20
2018-10-17T08:04:15.914Z,32.40
2018-10-17T08:05:15.840Z,32.20
2018-10-17T08:06:15.875Z,31.50
2018-10-17T08:07:15.663Z,32.00
2018-10-17T08:08:15.588Z,31.40
2018-10-17T08:09:15.499Z,31.80
2018-10-17T08:10:15.441Z,31.20
2018-10-17T08:11:15.352Z,32.10
2018-10-17T08:12:15.368Z,31.60
2018-10-17T08:13:15.172Z,31.60
2018-10-17T08:14:15.191Z,31.80
2018-10-17T08:15:15.015Z,31.10
2018-10-17T08:16:14.943Z,31.80
2018-10-17T08:17:14.853Z,31.10
2018-10-17T08:18:14.854Z,31.10
2018-10-17T08:19:14.939Z,30.30
2018-10-17T08:20:14.612Z,28.90
2018-10-17T08:21:14.545Z,29.50
2018-10-17T08:22:14.456Z,29.60
2018-10-17T08:23:14.368Z,30.50
2018-10-17T08:24:14.382Z,29.70
2018-10-17T08:25:14.202Z,29.30
2018-10-17T08:26:14.113Z,29.20
2018-10-17T08:27:14.098Z,28.30
2018-10-17T08:28:13.956Z,28.80
2018-10-17T08:29:13.883Z,28.50
2018-10-17T08:30:13.861Z,29.30
2018-10-17T08:31:13.714Z,29.00
2018-10-17T08:32:13.628Z,28.20
2018-10-17T08:33:13.549Z,28.40
2018-10-17T08:34:13.467Z,27.40
2018-10-17T08:35:13.395Z,29.20
2018-10-17T08:36:13.454Z,29.40
2018-10-17T08:37:13.533Z,27.90
2018-10-17T08:38:13.154Z,28.30
2018-10-17T08:39:13.068Z,28.50
2018-10-17T08:40:12.994Z,27.00
2018-10-17T08:41:13.021Z,26.20
2018-10-17T08:42:12.828Z,25.80
2018-10-17T08:43:12.741Z,25.20
2018-10-17T08:44:12.757Z,26.20
2018-10-17T08:45:12.618Z,25.40
2018-10-17T08:46:12.500Z,24.50
2018-10-17T08:47:12.425Z,24.80
2018-10-17T08:48:12.341Z,23.90
2018-10-17T08:49:12.266Z,24.70
2018-10-17T08:50:12.343Z,24.80
2018-10-17T08:51:12.108Z,24.50
2018-10-17T08:52:12.028Z,24.00
2018-10-17T08:53:11.954Z,25.10
2018-10-17T08:54:11.871Z,24.30
2018-10-17T08:55:11.797Z,25.10
2018-10-17T08:56:11.808Z,24.80
2018-10-17T08:57:11.631Z,24.30
2018-10-17T08:58:11.555Z,24.60
2018-10-17T08:59:11.732Z,25.10
2018-10-17T09:00:11.400Z,25.20
2018-10-17T09:01:11.322Z,24.50
2018-10-17T09:02:11.288Z,24.90
2018-10-17T09:03:11.156Z,23.70
2018-10-17T09:04:11.077Z,24.00
2018-10-17T09:05:11.005Z,23.00
2018-10-17T09:06:10.949Z,23.10
2018-10-17T09:07:10.846Z,23.00
2018-10-17T09:08:10.768Z,24.40
2018-10-17T09:09:10.692Z,25.30
2018-10-17T09:10:10.608Z,26.30
2018-10-17T09:11:10.546Z,26.50
2018-10-17T09:12:10.525Z,26.10
2018-10-17T09:13:10.387Z,26.60
2018-10-17T09:14:10.345Z,27.20
2018-10-17T09:15:10.219Z,26.40
2018-10-17T09:16:10.216Z,25.80
2018-10-17T09:17:10.059Z,26.70
2018-10-17T09:18:10.040Z,28.20
2018-10-17T09:19:10.177Z,26.80
2018-10-17T09:20:10.179Z,26.10
2018-10-17T09:21:10.182Z,26.50
2018-10-17T09:22:09.982Z,27.50
2018-10-17T09:23:09.599Z,27.70
2018-10-17T09:24:09.577Z,26.50
2018-10-17T09:25:09.434Z,25.90
2018-10-17T09:26:09.362Z,24.40
2018-10-17T09:27:09.273Z,25.10
2018-10-17T09:28:09.273Z,25.60
2018-10-17T09:29:09.127Z,26.20
2018-10-17T09:30:09.163Z,25.90
2018-10-17T09:31:08.957Z,25.80
2018-10-17T09:32:08.885Z,27.50
2018-10-17T09:33:08.810Z,26.00
2018-10-17T09:34:08.798Z,26.10
2018-10-17T09:35:08.707Z,25.20
2018-10-17T09:36:08.671Z,23.30
2018-10-17T09:37:08.483Z,23.40
2018-10-17T09:38:08.412Z,24.00
2018-10-17T09:39:08.337Z,18.20
2018-10-17T09:40:08.304Z,23.50
2018-10-17T09:41:08.172Z,23.60
2018-10-17T09:42:08.171Z,25.40
2018-10-17T09:43:08.052Z,24.80
2018-10-17T09:44:07.938Z,24.40
2018-10-17T09:45:07.874Z,23.30
2018-10-17T09:46:07.857Z,23.20
2018-10-17T09:47:07.695Z,23.50
2018-10-17T09:48:07.734Z,24.90
2018-10-17T09:49:07.554Z,24.00
2018-10-17T09:50:07.460Z,22.10
2018-10-17T09:51:07.385Z,23.80
2018-10-17T09:52:07.367Z,25.50
2018-10-17T09:53:07.236Z,24.90
2018-10-17T09:54:07.216Z,24.20
2018-10-17T09:55:07.076Z,22.80
2018-10-17T09:56:07.004Z,24.90
2018-10-17T09:57:06.922Z,24.60
2018-10-17T09:58:06.871Z,23.40
2018-10-17T09:59:07.026Z,22.90
2018-10-17T10:00:06.739Z,22.40
2018-10-17T10:01:06.607Z,21.70
2018-10-17T10:02:06.595Z,21.30
2018-10-17T10:03:06.450Z,21.10
2018-10-17T10:04:06.499Z,21.00
2018-10-17T10:05:06.287Z,20.00
2018-10-17T10:06:06.213Z,19.80
2018-10-17T10:07:06.135Z,19.80
2018-10-17T10:08:06.051Z,20.80
2018-10-17T10:09:06.225Z,21.10
2018-10-17T10:10:05.996Z,20.40
2018-10-17T10:11:05.917Z,21.60
2018-10-17T10:12:05.800Z,22.70
2018-10-17T10:13:05.662Z,20.90
2018-10-17T10:14:05.594Z,21.80
2018-10-17T10:15:05.517Z,21.80
2018-10-17T10:16:05.499Z,21.60
2018-10-17T10:17:05.430Z,21.00
2018-10-17T10:18:05.275Z,20.10
2018-10-17T10:19:05.198Z,21.00
2018-10-17T10:20:05.130Z,20.30
2018-10-17T10:21:05.046Z,21.40
2018-10-17T10:22:04.982Z,21.30
2018-10-17T10:23:04.904Z,20.10
2018-10-17T10:24:04.825Z,20.50
2018-10-17T10:25:04.763Z,19.70
2018-10-17T10:26:04.653Z,20.10
2018-10-17T10:27:04.584Z,20.90
2018-10-17T10:28:04.580Z,20.80
2018-10-17T10:29:04.430Z,20.80
2018-10-17T10:30:04.353Z,19.10
2018-10-17T10:31:04.265Z,19.40
2018-10-17T10:32:04.189Z,17.50
2018-10-17T10:33:04.114Z,18.80
2018-10-17T10:34:04.060Z,18.40
2018-10-17T10:35:03.956Z,20.00
2018-10-17T10:36:03.888Z,19.20
2018-10-17T10:37:03.800Z,18.60
2018-10-17T10:38:03.730Z,18.80
2018-10-17T10:39:03.642Z,18.80
2018-10-17T10:40:03.644Z,19.10
2018-10-17T10:41:03.495Z,17.90
2018-10-17T10:42:03.426Z,18.90
2018-10-17T10:43:03.329Z,19.10
2018-10-17T10:44:03.269Z,19.10
2018-10-17T10:45:03.210Z,18.60
2018-10-17T10:46:03.104Z,19.20
2018-10-17T10:47:03.029Z,19.80
2018-10-17T10:48:03.028Z,19.60
2018-10-17T10:49:02.909Z,19.70
2018-10-17T10:50:02.873Z,18.00
2018-10-17T10:51:02.752Z,18.70
2018-10-17T10:52:02.641Z,18.50
2018-10-17T10:53:02.571Z,18.60
2018-10-17T10:54:02.564Z,18.90
2018-10-17T10:55:02.409Z,20.00
2018-10-17T10:56:02.344Z,18.90
2018-10-17T10:57:02.286Z,19.00
2018-10-17T10:58:02.219Z,18.80
2018-10-17T10:59:02.124Z,20.40
2018-10-17T11:00:02.062Z,18.30
2018-10-17T11:01:01.958Z,18.40
2018-10-17T11:02:01.951Z,19.70
2018-10-17T11:03:01.872Z,20.30
2018-10-17T11:04:01.719Z,20.30
2018-10-17T11:05:01.738Z,18.90
2018-10-17T11:06:01.578Z,20.30
2018-10-17T11:07:01.497Z,18.20
2018-10-17T11:08:01.456Z,19.40
2018-10-17T11:09:01.340Z,19.00
2018-10-17T11:10:01.270Z,20.10
2018-10-17T11:11:01.225Z,17.90
2018-10-17T11:12:01.123Z,18.50
2018-10-17T11:13:01.061Z,17.50
2018-10-17T11:14:01.038Z,18.20
2018-10-17T11:15:01.073Z,18.40
2018-10-17T11:16:00.823Z,17.00
2018-10-17T11:17:00.787Z,16.80
2018-10-17T11:18:00.669Z,17.90
2018-10-17T11:19:00.594Z,17.40
2018-10-17T11:20:00.518Z,17.40
2018-10-17T11:21:00.455Z,17.40
2018-10-17T11:22:00.431Z,18.00
2018-10-17T11:23:00.359Z,17.60
2018-10-17T11:24:00.222Z,17.00
2018-10-17T11:25:00.145Z,17.10
2018-10-17T11:26:00.077Z,16.60
2018-10-17T11:27:00.053Z,17.50
2018-10-17T11:27:59.939Z,17.80
2018-10-17T11:28:59.869Z,17.50
2018-10-17T11:29:59.781Z,17.00
2018-10-17T11:30:59.707Z,17.20
2018-10-17T11:31:59.696Z,17.40
2018-10-17T11:32:59.640Z,17.50
2018-10-17T11:33:59.499Z,17.20
2018-10-17T11:34:59.455Z,17.80
2018-10-17T11:35:59.343Z,17.10
2018-10-17T11:36:59.270Z,18.40
2018-10-17T11:37:59.241Z,18.30
2018-10-17T11:38:59.181Z,18.20
2018-10-17T11:39:59.066Z,17.80
2018-10-17T11:40:59.021Z,17.30
2018-10-17T11:41:58.920Z,17.90
2018-10-17T11:42:58.839Z,17.80
2018-10-17T11:43:58.773Z,18.90
2018-10-17T11:44:58.751Z,17.50
2018-10-17T11:45:58.633Z,17.70
2018-10-17T11:46:58.582Z,17.80
2018-10-17T11:47:58.475Z,17.20
2018-10-17T11:48:58.415Z,16.50
2018-10-17T11:49:58.333Z,17.70
2018-10-17T11:50:58.268Z,17.00
2018-10-17T11:51:58.186Z,16.70
2018-10-17T11:52:58.185Z,16.20
2018-10-17T11:53:58.052Z,16.80
2018-10-17T11:54:57.977Z,16.10
2018-10-17T11:55:57.897Z,16.00
2018-10-17T11:56:57.840Z,16.30
2018-10-17T11:57:57.764Z,16.00
2018-10-17T11:58:57.989Z,16.20
2018-10-17T11:59:57.628Z,16.30
2018-10-17T12:00:57.567Z,16.30
2018-10-17T12:01:57.474Z,15.60
2018-10-17T12:02:57.422Z,15.10
2018-10-17T12:03:57.556Z,15.40
2018-10-17T12:04:57.559Z,15.80
2018-10-17T12:05:57.343Z,16.30
2018-10-17T12:06:57.113Z,16.00
2018-10-17T12:07:57.049Z,15.70
2018-10-17T12:08:57.108Z,14.90
2018-10-17T12:09:56.901Z,14.90
2018-10-17T12:10:56.827Z,16.00
2018-10-17T12:11:56.887Z,15.60
2018-10-17T12:12:56.688Z,16.30
2018-10-17T12:13:56.621Z,15.00
2018-10-17T12:14:56.568Z,14.70
2018-10-17T12:15:56.477Z,14.20
2018-10-17T12:16:56.416Z,14.30
2018-10-17T12:17:56.369Z,13.80
2018-10-17T12:18:56.278Z,12.90
2018-10-17T12:19:56.230Z,12.50
2018-10-17T12:20:56.140Z,13.30
2018-10-17T12:21:56.042Z,13.30
2018-10-17T12:22:55.962Z,13.10
2018-10-17T12:23:55.947Z,12.60
2018-10-17T12:24:55.828Z,13.00
2018-10-17T12:25:55.756Z,13.10
2018-10-17T12:26:55.739Z,13.70
2018-10-17T12:27:55.724Z,13.80
2018-10-17T12:28:55.640Z,13.40
2018-10-17T12:29:55.529Z,13.20
2018-10-17T12:30:55.404Z,12.70
2018-10-17T12:31:55.344Z,12.90
2018-10-17T12:32:55.268Z,13.10
2018-10-17T12:33:55.178Z,13.00
2018-10-17T12:34:55.153Z,13.10
2018-10-17T12:35:55.040Z,13.10
2018-10-17T12:36:54.965Z,12.50
2018-10-17T12:37:54.906Z,12.60
2018-10-17T12:38:54.831Z,13.10
2018-10-17T12:39:54.944Z,12.40
2018-10-17T12:40:54.805Z,12.70
2018-10-17T12:41:54.603Z,11.30
2018-10-17T12:42:54.529Z,12.20
2018-10-17T12:43:54.503Z,11.20
2018-10-17T12:44:54.439Z,12.30
2018-10-17T12:45:54.321Z,12.30
2018-10-17T12:56:44.004Z,12.70
2018-10-17T12:57:43.934Z,14.10
2018-10-17T12:58:43.875Z,13.80
2018-10-17T12:59:43.782Z,14.30
2018-10-17T13:00:43.722Z,12.70
2018-10-17T13:01:43.641Z,13.00